Time;durP1;ratioP1;P1;durP2;ratioP2;P2;SDS_P1;SDS_P2;PMS_P1;PMS_P2;Temp;Humidity;BMP_temperature;BMP_pressure;BME280_temperature;BME280_humidity;BME280_pressure;Samples;Min_cycle;Max_cycle;Signal;HPM_P1;HPM_P2
2023/12/02 00:00:15;;;;;;;20.57;7.80;;;;;;;0.06;100.00;98692.44;12203006;19;20002;-86
2023/12/02 00:04:18;;;;;;;19.67;7.63;;;;;;;0.02;100.00;98698.47;12179714;19;20018;-84
2023/12/02 00:08:23;;;;;;;16.00;7.82;;;;;;;-0.05;100.00;98703.91;12200230;19;20382;-84
2023/12/02 00:12:25;;;;;;;18.80;8.33;;;;;;;-0.10;100.00;98703.69;12203271;19;20026;-82
2023/12/02 00:16:27;;;;;;;20.67;7.67;;;;;;;-0.15;100.00;98696.19;12191523;19;20018;-84
2023/12/02 00:20:29;;;;;;;17.48;7.55;;;;;;;-0.24;100.00;98692.88;12219671;19;20002;-84
2023/12/02 00:24:31;;;;;;;14.10;6.57;;;;;;;-0.21;100.00;98685.34;12206412;19;20006;-85
2023/12/02 00:28:33;;;;;;;17.67;6.33;;;;;;;-0.31;100.00;98689.31;12183890;19;20014;-81
2023/12/02 00:32:35;;;;;;;17.00;6.68;;;;;;;-0.30;100.00;98692.84;12203444;19;20072;-84
2023/12/02 00:36:37;;;;;;;15.30;6.50;;;;;;;-0.32;100.00;98687.66;12209557;19;20007;-84
2023/12/02 00:40:38;;;;;;;13.13;6.07;;;;;;;-0.29;100.00;98689.13;12182993;19;20493;-86
2023/12/02 00:44:40;;;;;;;15.00;5.97;;;;;;;-0.37;100.00;98686.59;12205126;19;20022;-85
2023/12/02 00:48:44;;;;;;;13.70;4.97;;;;;;;-0.32;100.00;98689.53;12199548;19;20002;-83
2023/12/02 00:52:46;;;;;;;14.98;6.45;;;;;;;-0.35;100.00;98690.78;12178976;19;20011;-84
2023/12/02 00:56:48;;;;;;;11.82;5.75;;;;;;;-0.34;100.00;98691.59;12212303;19;20023;-84
2023/12/02 01:00:50;;;;;;;11.03;5.43;;;;;;;-0.38;100.00;98685.78;12201938;19;20034;-83
2023/12/02 01:04:52;;;;;;;12.90;5.75;;;;;;;-0.38;100.00;98688.47;12178169;19;21432;-84
2023/12/02 01:08:54;;;;;;;11.93;5.53;;;;;;;-0.53;100.00;98696.78;12208754;19;20139;-84
2023/12/02 01:12:56;;;;;;;8.75;4.45;;;;;;;-0.51;100.00;98697.38;12220677;19;20023;-84
2023/12/02 01:16:58;;;;;;;11.90;5.07;;;;;;;-0.49;100.00;98706.16;12234500;19;20011;-88
2023/12/02 01:21:00;;;;;;;11.23;5.13;;;;;;;-0.55;100.00;98715.09;12258793;19;20685;-89
2023/12/02 01:25:02;;;;;;;11.33;5.80;;;;;;;-0.50;100.00;98725.31;12199842;19;20006;-83
2023/12/02 01:29:04;;;;;;;14.68;5.45;;;;;;;-0.56;100.00;98726.97;12209356;19;20025;-83
2023/12/02 01:33:05;;;;;;;12.87;5.33;;;;;;;-0.53;100.00;98733.84;12199895;19;20410;-84
2023/12/02 01:37:07;;;;;;;12.10;5.77;;;;;;;-0.57;100.00;98744.22;12168506;19;20014;-83
2023/12/02 01:41:10;;;;;;;11.40;5.28;;;;;;;-0.54;100.00;98751.09;12203165;19;20071;-83
2023/12/02 01:45:11;;;;;;;10.87;4.67;;;;;;;-0.57;100.00;98746.09;12208715;19;20009;-83
2023/12/02 01:49:14;;;;;;;12.30;4.90;;;;;;;-0.58;100.00;98744.44;12173010;19;20007;-84
2023/12/02 01:53:30;;;;;;;10.68;4.60;;;;;;;-0.60;100.00;98768.97;12199795;19;20011;-84
2023/12/02 01:57:33;;;;;;;10.73;5.25;;;;;;;-0.65;100.00;98765.25;12211839;19;20030;-84
2023/12/02 02:01:35;;;;;;;8.70;4.60;;;;;;;-0.60;100.00;98760.03;12179766;19;20058;-84
2023/12/02 02:05:38;;;;;;;10.90;5.35;;;;;;;-0.59;100.00;98756.31;12189189;19;20013;-84
2023/12/02 02:09:47;;;;;;;10.98;4.22;;;;;;;-0.66;100.00;98764.38;12187639;19;20082;-84
2023/12/02 02:13:48;;;;;;;12.73;6.20;;;;;;;-0.66;100.00;98764.38;12172041;19;21021;-85
2023/12/02 02:17:50;;;;;;;11.95;4.88;;;;;;;-0.69;100.00;98759.38;12192458;19;20007;-81
2023/12/02 02:21:53;;;;;;;9.80;4.20;;;;;;;-0.70;100.00;98755.00;12187489;19;19999;-84
2023/12/02 02:25:54;;;;;;;;;;;;;;;-0.80;100.00;98762.69;12162924;19;20003;-83
2023/12/02 02:29:56;;;;;;;9.68;4.85;;;;;;;-0.76;100.00;98764.78;12186845;19;19902;-84
2023/12/02 02:33:58;;;;;;;11.15;4.65;;;;;;;-0.76;100.00;98767.47;12193078;19;19998;-86
2023/12/02 02:38:00;;;;;;;10.23;3.63;;;;;;;-0.73;100.00;98763.53;12168496;19;20007;-85
2023/12/02 02:42:06;;;;;;;9.73;4.33;;;;;;;-0.70;100.00;98768.53;12190413;19;20007;-85
2023/12/02 02:46:09;;;;;;;9.13;4.07;;;;;;;-0.62;100.00;98768.38;12164578;19;21072;-86
2023/12/02 02:50:11;;;;;;;10.40;4.30;;;;;;;-0.66;100.00;98769.78;12199385;19;20034;-85
2023/12/02 02:54:13;;;;;;;8.43;3.93;;;;;;;-0.62;100.00;98770.25;12202163;19;20010;-86
2023/12/02 02:58:15;;;;;;;12.77;4.77;;;;;;;-0.57;100.00;98775.84;12178930;19;20407;-86
2023/12/02 03:02:18;;;;;;;10.75;5.28;;;;;;;-0.55;100.00;98777.31;12200125;19;20281;-85
2023/12/02 03:06:19;;;;;;;;;;;;;;;-0.55;100.00;98776.50;12195795;19;20011;-86
2023/12/02 03:10:22;;;;;;;10.25;4.95;;;;;;;-0.62;100.00;98776.47;12179528;19;19946;-85
2023/12/02 03:14:24;;;;;;;;;;;;;;;-0.64;100.00;98778.56;12200887;19;20023;-85
2023/12/02 03:18:26;;;;;;;8.30;3.72;;;;;;;-0.73;99.95;98777.88;12211743;19;20254;-85
2023/12/02 03:22:28;;;;;;;10.02;4.03;;;;;;;-0.72;100.00;98776.84;12201577;19;20055;-85
2023/12/02 03:26:30;;;;;;;8.83;4.27;;;;;;;-0.74;100.00;98783.53;12216354;19;21405;-85
2023/12/02 03:30:32;;;;;;;11.97;4.10;;;;;;;-0.73;100.00;98786.00;12201822;19;20014;-85
2023/12/02 03:34:34;;;;;;;10.70;4.07;;;;;;;-0.78;100.00;98799.28;12182215;19;20002;-85
2023/12/02 03:38:36;;;;;;;7.40;4.03;;;;;;;-0.75;100.00;98798.88;12201616;19;20018;-86
2023/12/02 03:42:38;;;;;;;10.43;4.33;;;;;;;-0.73;100.00;98801.41;12200642;19;20013;-85
2023/12/02 03:46:40;;;;;;;9.77;4.18;;;;;;;-0.81;99.99;98809.69;12176223;19;20002;-84
2023/12/02 03:50:42;;;;;;;10.57;4.37;;;;;;;-0.84;100.00;98800.09;12191930;19;20003;-86
2023/12/02 03:54:44;;;;;;;10.23;4.17;;;;;;;-0.81;99.58;98793.47;12201105;19;20013;-84
2023/12/02 03:58:46;;;;;;;7.72;3.72;;;;;;;-0.85;100.00;98789.50;12176895;19;20021;-84
2023/12/02 04:02:48;;;;;;;9.40;4.65;;;;;;;-0.81;100.00;98788.03;12202627;19;20014;-85
2023/12/02 04:06:50;;;;;;;10.87;4.40;;;;;;;-0.87;99.85;98795.09;12195209;19;20010;-84
2023/12/02 04:10:52;;;;;;;7.20;2.73;;;;;;;-0.85;100.00;98803.03;12174132;19;20015;-84
2023/12/02 04:14:54;;;;;;;9.80;3.80;;;;;;;-0.90;100.00;98805.47;12196189;19;20003;-82
2023/12/02 04:18:57;;;;;;;14.80;5.30;;;;;;;-0.87;100.00;98805.09;12194012;19;20093;-83
2023/12/02 04:22:59;;;;;;;11.38;4.85;;;;;;;-0.87;100.00;98815.91;12174668;19;20047;-85
2023/12/02 04:27:02;;;;;;;9.80;4.25;;;;;;;-0.90;100.00;98816.31;12194504;19;20013;-83
2023/12/02 04:31:04;;;;;;;13.27;4.55;;;;;;;-0.84;100.00;98827.16;12171102;19;20003;-83
2023/12/02 04:35:08;;;;;;;10.03;4.47;;;;;;;-0.84;100.00;98824.44;12198801;19;20006;-83
2023/12/02 04:39:11;;;;;;;14.38;5.25;;;;;;;-0.80;100.00;98824.91;12214352;19;20055;-84
2023/12/02 04:43:13;;;;;;;8.77;4.18;;;;;;;-0.76;100.00;98827.00;12194787;19;20009;-83
2023/12/02 04:47:15;;;;;;;5.33;3.00;;;;;;;-0.84;100.00;98831.72;12195091;19;20078;-85
2023/12/02 04:51:18;;;;;;;9.23;3.88;;;;;;;-0.83;100.00;98836.09;12195156;19;20007;-85
2023/12/02 04:55:20;;;;;;;11.60;4.40;;;;;;;-0.91;100.00;98845.22;12172560;19;20023;-85
2023/12/02 04:59:22;;;;;;;5.00;2.65;;;;;;;-0.87;100.00;98849.19;12198768;19;20022;-84
2023/12/02 05:03:24;;;;;;;9.13;4.20;;;;;;;-0.75;100.00;98862.97;12195283;19;20372;-83
2023/12/02 05:07:26;;;;;;;9.60;4.27;;;;;;;-0.71;100.00;98865.09;12173456;19;20090;-86
2023/12/02 05:11:28;;;;;;;11.55;4.97;;;;;;;-0.63;100.00;98874.91;12192063;19;20006;-85
2023/12/02 05:15:30;;;;;;;8.85;4.00;;;;;;;-0.61;99.18;98888.25;12193489;19;20010;-84
2023/12/02 05:19:32;;;;;;;8.20;5.17;;;;;;;-0.63;99.67;98895.72;12172403;19;20010;-85
2023/12/02 05:23:34;;;;;;;8.83;4.53;;;;;;;-0.60;100.00;98901.56;12192731;19;20002;-84
2023/12/02 05:27:36;;;;;;;7.07;3.37;;;;;;;-0.55;99.59;98898.28;12193510;19;20267;-85
2023/12/02 05:31:38;;;;;;;7.65;3.22;;;;;;;-0.64;98.29;98907.59;12172643;19;20011;-83
2023/12/02 05:35:43;;;;;;;7.65;3.42;;;;;;;-0.65;98.62;98914.03;12199893;19;20039;-86
2023/12/02 05:39:46;;;;;;;7.38;3.15;;;;;;;-0.60;98.48;98934.03;12198426;19;20014;-86
2023/12/02 05:44:12;;;;;;;7.45;2.63;;;;;;;-0.59;97.73;98946.53;12169378;19;20006;-83
2023/12/02 05:48:14;;;;;;;6.68;3.30;;;;;;;-0.70;96.43;98950.63;12192432;19;20015;-84
2023/12/02 05:52:16;;;;;;;8.10;3.43;;;;;;;-0.64;97.91;98951.72;12174094;19;20038;-83
2023/12/02 05:56:21;;;;;;;3.75;2.35;;;;;;;-0.63;96.92;98958.78;12193963;19;20260;-85
2023/12/02 06:00:24;;;;;;;8.15;3.50;;;;;;;-0.59;97.73;98959.25;12193270;19;20015;-86
2023/12/02 06:04:27;;;;;;;;;;;;;;;-0.62;96.71;98962.34;12171557;19;20039;-85
2023/12/02 06:08:31;;;;;;;7.55;3.40;;;;;;;-0.63;97.21;98963.38;12192111;19;19910;-84
2023/12/02 06:12:33;;;;;;;5.97;2.50;;;;;;;-0.69;96.02;98954.16;12190455;19;20498;-87
2023/12/02 06:16:35;;;;;;;6.65;3.00;;;;;;;-0.73;96.95;98953.72;12169238;19;20502;-84
2023/12/02 06:20:37;;;;;;;7.93;2.78;;;;;;;-0.78;96.45;98958.06;12194823;19;20014;-86
2023/12/02 06:24:39;;;;;;;7.57;3.47;;;;;;;-0.77;96.16;98971.41;12204611;19;20002;-86
2023/12/02 06:28:41;;;;;;;5.22;2.75;;;;;;;-0.85;95.31;98978.84;12183425;19;20014;-85
2023/12/02 06:32:43;;;;;;;5.75;2.83;;;;;;;-0.89;94.43;98985.66;12203337;19;20035;-85
2023/12/02 06:36:45;;;;;;;6.70;2.43;;;;;;;-0.92;94.04;98993.13;12201618;19;20755;-86
2023/12/02 06:40:47;;;;;;;3.63;1.50;;;;;;;-0.83;95.65;99001.94;12179438;19;20346;-86
2023/12/02 06:44:49;;;;;;;7.87;2.33;;;;;;;-0.82;94.22;99010.91;12203873;19;20007;-85
2023/12/02 06:48:51;;;;;;;4.90;2.20;;;;;;;-0.86;94.13;99018.56;12187908;19;20280;-84
2023/12/02 06:53:19;;;;;;;4.90;2.45;;;;;;;-0.87;94.15;99016.88;12189881;19;20442;-86
2023/12/02 06:57:36;;;;;;;4.43;2.30;;;;;;;-0.87;94.00;99026.88;12221583;19;20050;-84
2023/12/02 07:11:13;;;;;;;6.07;2.47;;;;;;;-0.86;93.59;99039.34;12241753;19;20017;-82
2023/12/02 07:20:18;;;;;;;5.05;2.90;;;;;;;-0.84;92.96;99061.63;12191839;19;20027;-84
2023/12/02 07:25:21;;;;;;;4.43;2.00;;;;;;;-0.80;92.65;99054.81;12207659;19;20073;-84
2023/12/02 07:29:54;;;;;;;4.72;2.25;;;;;;;-0.81;92.26;99064.78;12180007;19;20525;-84
2023/12/02 07:34:02;;;;;;;5.43;2.83;;;;;;;-0.83;91.92;99066.00;12196851;19;20013;-84
2023/12/02 07:38:40;;;;;;;6.97;2.80;;;;;;;-0.73;92.04;99066.53;12178551;19;20006;-84
2023/12/02 07:57:48;;;;;;;6.43;3.20;;;;;;;-0.67;91.40;99097.38;12236080;19;20010;-86
2023/12/02 08:26:11;;;;;;;8.70;4.90;;;;;;;-0.62;91.86;99152.59;12224323;19;19986;-87
2023/12/02 08:54:08;;;;;;;7.70;4.47;;;;;;;-0.83;91.88;99156.13;12227784;19;20013;-86
2023/12/02 08:58:32;;;;;;;;;;;;;;;;;;;;;
2023/12/02 09:03:13;;;;;;;9.40;3.53;;;;;;;-0.88;89.41;99176.66;12206289;19;20042;-86
2023/12/02 10:36:09;;;;;;;6.63;3.03;;;;;;;-0.40;79.11;99277.91;12225686;19;20092;-85
2023/12/02 10:50:18;;;;;;;6.85;2.95;;;;;;;-0.42;79.99;99271.84;12223294;19;20019;-85
2023/12/02 11:09:32;;;;;;;6.20;3.10;;;;;;;-0.50;83.71;99275.53;12217441;19;20011;-86
2023/12/02 12:11:51;;;;;;;7.95;3.38;;;;;;;-0.32;77.18;99348.19;12201030;19;20002;-86
2023/12/02 12:16:15;;;;;;;5.55;2.65;;;;;;;-0.32;78.00;99358.19;12203752;19;20003;-85
2023/12/02 12:20:19;;;;;;;3.85;2.00;;;;;;;-0.36;76.89;99365.00;12183866;19;20002;-86
2023/12/02 12:24:21;;;;;;;7.85;3.00;;;;;;;-0.25;78.47;99378.03;12201756;19;20010;-86
2023/12/02 12:32:58;;;;;;;6.22;2.67;;;;;;;-0.25;77.33;99394.28;12183436;19;20006;-85
2023/12/02 12:37:13;;;;;;;6.78;3.33;;;;;;;-0.34;75.47;99400.84;12227482;19;20006;-86
2023/12/02 12:41:21;;;;;;;7.38;2.28;;;;;;;-0.45;75.78;99410.28;12179133;19;20010;-86
2023/12/02 12:45:23;;;;;;;6.95;3.47;;;;;;;-0.36;76.33;99408.31;12208679;19;20010;-86
2023/12/02 12:49:40;;;;;;;6.38;3.65;;;;;;;-0.39;76.89;99424.94;12214066;19;20108;-86
2023/12/02 12:54:02;;;;;;;6.80;2.90;;;;;;;-0.42;77.03;99419.91;12202286;19;20006;-85
2023/12/02 13:16:42;;;;;;;4.85;3.00;;;;;;;-0.32;76.18;99461.06;12202970;19;20027;-86
2023/12/02 13:21:07;;;;;;;6.25;3.38;;;;;;;-0.38;76.81;99465.38;12173258;19;20002;-86
2023/12/02 13:25:16;;;;;;;5.55;2.88;;;;;;;-0.39;75.98;99476.38;12198487;19;20014;-87
2023/12/02 13:29:24;;;;;;;6.07;2.58;;;;;;;-0.37;75.76;99482.44;12180463;19;20006;-85
2023/12/02 13:34:30;;;;;;;8.57;2.83;;;;;;;-0.32;76.20;99490.84;12198073;19;20553;-86
2023/12/02 13:38:42;;;;;;;6.68;2.90;;;;;;;-0.28;76.91;99501.09;12178726;19;20027;-86
2023/12/02 13:42:54;;;;;;;8.98;3.30;;;;;;;-0.33;73.14;99510.81;12196425;19;20003;-86
2023/12/02 13:47:12;;;;;;;7.53;3.67;;;;;;;-0.51;74.64;99514.72;12167512;19;20003;-86
2023/12/02 13:51:50;;;;;;;8.40;3.53;;;;;;;-0.67;74.81;99523.03;12192786;19;20014;-85
2023/12/02 13:56:23;;;;;;;10.50;4.10;;;;;;;-0.76;76.38;99532.25;12174337;19;20591;-85
2023/12/02 14:01:19;;;;;;;11.93;4.05;;;;;;;-0.71;76.97;99535.25;12206822;19;20003;-86
2023/12/02 14:05:30;;;;;;;13.13;5.05;;;;;;;-0.79;76.37;99540.72;12198813;19;19999;-85
2023/12/02 14:09:39;;;;;;;8.30;4.50;;;;;;;-0.82;77.05;99546.50;12195993;19;20396;-85
2023/12/02 14:13:45;;;;;;;8.70;4.38;;;;;;;-0.81;77.19;99549.00;12184919;19;20070;-85
2023/12/02 14:18:02;;;;;;;13.55;5.50;;;;;;;-0.81;76.62;99562.53;12204539;19;20917;-84
2023/12/02 14:22:44;;;;;;;14.07;5.05;;;;;;;-0.82;77.69;99568.16;12146681;19;20011;-86
2023/12/02 14:27:19;;;;;;;9.90;4.85;;;;;;;-0.86;77.88;99569.53;12198231;19;20026;-85
2023/12/02 14:32:07;;;;;;;9.75;4.25;;;;;;;-0.87;78.96;99582.22;12200498;19;20022;-85
2023/12/02 15:14:46;;;;;;;7.43;4.35;;;;;;;-0.85;80.42;99647.81;12192745;19;20010;-85
2023/12/02 15:18:50;;;;;;;9.65;4.32;;;;;;;-0.90;80.13;99654.78;12205073;19;20729;-85
2023/12/02 15:23:16;;;;;;;6.97;3.97;;;;;;;-0.87;79.33;99667.94;12185904;19;20015;-85
2023/12/02 15:27:32;;;;;;;13.13;4.57;;;;;;;-0.90;79.63;99671.00;12205231;19;20097;-85
2023/12/02 15:32:17;;;;;;;10.88;4.35;;;;;;;-0.87;79.91;99674.19;12209525;19;20010;-84
2023/12/02 15:36:21;;;;;;;8.05;3.83;;;;;;;-0.85;79.47;99682.13;12205427;19;20006;-84
2023/12/02 15:40:24;;;;;;;7.20;3.20;;;;;;;-0.88;79.53;99690.59;12201422;19;19999;-84
2023/12/02 15:44:26;;;;;;;;;;;;;;;-0.85;79.16;99691.09;12182202;19;20381;-84
2023/12/02 15:48:29;;;;;;;7.57;3.20;;;;;;;-0.81;79.00;99695.09;12200649;19;19925;-84
2023/12/02 15:52:39;;;;;;;9.85;3.55;;;;;;;-0.78;78.85;99708.28;12206785;19;20090;-84
2023/12/02 16:45:43;;;;;;;10.23;4.50;;;;;;;-0.83;79.40;99801.81;12200800;19;20347;-83
2023/12/02 16:55:21;;;;;;;11.25;5.65;;;;;;;-0.83;78.13;99809.94;12225854;19;20007;-84
2023/12/02 17:00:25;;;;;;;13.68;6.30;;;;;;;-0.74;79.08;99822.44;12195560;19;20090;-83
2023/12/02 17:09:36;;;;;;;11.93;4.55;;;;;;;-0.66;78.53;99829.66;12174329;19;20107;-83
2023/12/02 17:14:05;;;;;;;7.72;4.03;;;;;;;-0.66;78.50;99833.19;12198523;19;20013;-83
2023/12/02 17:19:15;;;;;;;8.45;4.25;;;;;;;-0.74;77.83;99839.50;12200738;19;20006;-83
2023/12/02 17:33:16;;;;;;;8.18;4.00;;;;;;;-0.70;78.18;99848.09;12200999;19;20086;-81
2023/12/02 17:42:20;;;;;;;10.38;5.00;;;;;;;-0.74;78.83;99866.56;12187221;19;20028;-82
2023/12/02 17:46:43;;;;;;;11.73;4.75;;;;;;;-0.68;78.70;99862.31;12197677;19;20173;-83
2023/12/02 18:02:16;;;;;;;10.52;4.78;;;;;;;-0.73;78.62;99878.22;12188845;19;20027;-82
2023/12/02 18:06:51;;;;;;;10.55;4.47;;;;;;;-0.76;78.56;99878.56;12202592;19;20498;-82
2023/12/02 18:11:39;;;;;;;11.60;4.72;;;;;;;-0.72;78.25;99885.31;12221174;19;20062;-82
2023/12/02 18:20:17;;;;;;;9.35;5.40;;;;;;;-0.78;79.02;99896.84;12195595;19;20035;-83
2023/12/02 18:25:01;;;;;;;9.27;5.38;;;;;;;-0.70;79.01;99905.78;12215074;19;20006;-82
2023/12/02 18:38:52;;;;;;;13.88;4.70;;;;;;;-0.73;79.31;99922.34;12212381;19;20018;-82
2023/12/02 18:42:59;;;;;;;10.18;4.82;;;;;;;-0.74;79.43;99927.97;12226178;19;20020;-82
2023/12/02 18:47:18;;;;;;;11.30;4.85;;;;;;;-0.78;79.43;99934.72;12203526;19;20050;-83
2023/12/02 18:51:20;;;;;;;11.80;4.70;;;;;;;-0.83;79.84;99939.78;12198409;19;20071;-83
2023/12/02 19:00:29;;;;;;;11.25;4.82;;;;;;;-0.90;79.19;99952.34;12183360;19;20030;-81
2023/12/02 19:20:27;;;;;;;10.52;5.47;;;;;;;-0.70;79.51;99983.41;12192410;19;20378;-82
2023/12/02 19:24:42;;;;;;;12.57;5.65;;;;;;;-0.67;79.22;99990.34;12199894;19;20006;-81
2023/12/02 19:28:49;;;;;;;16.83;5.88;;;;;;;-0.70;79.45;99994.22;12223237;19;20608;-82
2023/12/02 19:52:32;;;;;;;14.05;5.25;;;;;;;-0.64;79.27;100023.31;12193940;19;19940;-81
2023/12/02 19:56:54;;;;;;;10.00;5.07;;;;;;;-0.62;79.70;100026.69;12174376;19;20011;-82
2023/12/02 20:01:35;;;;;;;11.38;6.18;;;;;;;-0.55;79.66;100027.69;12186715;19;20030;-81
2023/12/02 20:05:40;;;;;;;14.80;6.88;;;;;;;-0.52;79.72;100037.31;12194317;19;20031;-82
2023/12/02 20:09:43;;;;;;;20.92;8.05;;;;;;;-0.61;79.24;100036.50;12190499;19;20018;-83
2023/12/02 20:13:45;;;;;;;13.05;6.57;;;;;;;-0.64;79.45;100038.72;12199399;19;20093;-83
2023/12/02 20:17:47;;;;;;;11.67;6.77;;;;;;;-0.75;80.13;100035.31;12178686;19;20384;-83
2023/12/02 20:21:49;;;;;;;13.60;6.10;;;;;;;-0.83;80.61;100048.00;12198296;19;20493;-83
2023/12/02 20:25:50;;;;;;;19.67;7.22;;;;;;;-0.94;80.85;100058.19;12195754;19;20473;-84
2023/12/02 20:29:52;;;;;;;17.03;7.20;;;;;;;-0.99;81.30;100057.00;12174805;19;20006;-83
2023/12/02 20:33:54;;;;;;;14.77;7.07;;;;;;;-1.04;81.99;100062.94;12201558;19;20007;-83
2023/12/02 20:37:57;;;;;;;15.52;6.95;;;;;;;-1.03;81.78;100061.91;12175672;19;20003;-83
2023/12/02 20:41:58;;;;;;;16.83;7.90;;;;;;;-0.95;82.22;100064.63;12197048;19;20086;-83
2023/12/02 20:46:00;;;;;;;18.13;7.50;;;;;;;-0.85;82.51;100069.84;12196296;19;20872;-83
2023/12/02 20:50:03;;;;;;;19.03;8.27;;;;;;;-0.78;82.46;100070.84;12171403;19;20109;-83
2023/12/02 20:54:05;;;;;;;18.25;7.97;;;;;;;-0.71;82.11;100069.16;12196124;19;20011;-83
2023/12/02 20:58:06;;;;;;;11.83;5.47;;;;;;;-0.71;81.39;100068.31;12195618;19;20007;-82
2023/12/02 21:02:08;;;;;;;17.03;8.33;;;;;;;-0.71;81.54;100073.75;12174162;19;20031;-82
2023/12/02 21:06:10;;;;;;;11.93;5.45;;;;;;;-0.72;81.24;100069.31;12191738;19;20074;-83
2023/12/02 21:10:12;;;;;;;18.55;7.93;;;;;;;-0.71;81.51;100073.75;12187342;19;20447;-82
2023/12/02 21:14:14;;;;;;;24.80;8.10;;;;;;;-0.64;82.23;100069.31;12175036;19;20090;-83
2023/12/02 21:18:16;;;;;;;13.55;6.43;;;;;;;-0.61;82.19;100068.13;12198395;19;20002;-83
2023/12/02 21:22:18;;;;;;;19.65;7.60;;;;;;;-0.67;81.44;100071.53;12197099;19;20010;-82
2023/12/02 21:26:20;;;;;;;16.50;7.50;;;;;;;-0.72;81.55;100077.44;12176864;19;20027;-83
2023/12/02 21:30:30;;;;;;;15.85;6.82;;;;;;;-0.69;82.28;100080.66;12196173;19;20107;-83
2023/12/02 21:34:32;;;;;;;15.77;6.75;;;;;;;-0.67;82.06;100085.91;12202285;19;20011;-82
2023/12/02 21:38:41;;;;;;;;;;;;;;;-0.63;82.20;100094.53;12183696;19;20050;-83
2023/12/02 21:42:54;;;;;;;13.95;6.45;;;;;;;-0.65;81.82;100097.41;12205975;19;19962;-83
2023/12/02 21:46:59;;;;;;;16.20;7.10;;;;;;;-0.64;81.81;100111.78;12187181;19;20010;-84
2023/12/02 21:51:03;;;;;;;19.85;7.88;;;;;;;-0.67;82.10;100121.09;12197789;19;20710;-82
2023/12/02 21:55:14;;;;;;;15.77;8.20;;;;;;;-0.68;82.41;100119.41;12191352;19;20007;-83
2023/12/02 21:59:20;;;;;;;17.77;7.53;;;;;;;-0.67;82.94;100126.50;12181535;19;20030;-82
2023/12/02 22:03:37;;;;;;;16.08;6.22;;;;;;;-0.75;83.54;100119.22;12201909;19;20011;-82
2023/12/02 22:07:40;;;;;;;15.95;6.13;;;;;;;-0.79;83.81;100127.84;12195076;19;20046;-82
2023/12/02 22:11:42;;;;;;;18.45;7.90;;;;;;;-0.86;84.58;100127.69;12175384;19;20474;-83
2023/12/02 22:15:45;;;;;;;16.63;7.60;;;;;;;-0.81;85.13;100127.16;12197795;19;20072;-82
2023/12/02 22:20:01;;;;;;;14.43;6.93;;;;;;;-0.72;85.06;100142.38;12194278;19;20010;-83
2023/12/02 22:24:23;;;;;;;16.83;7.18;;;;;;;-0.67;85.31;100145.44;12169849;19;20289;-83
2023/12/02 22:28:28;;;;;;;16.23;7.35;;;;;;;-0.69;84.94;100155.56;12199297;19;20124;-83
2023/12/02 22:32:30;;;;;;;15.93;7.18;;;;;;;-0.71;84.55;100158.47;12152827;19;20027;-83
2023/12/02 22:36:32;;;;;;;14.10;6.83;;;;;;;-0.80;84.22;100151.38;12197078;19;20011;-83
2023/12/02 22:40:44;;;;;;;15.00;7.23;;;;;;;-0.80;84.11;100159.47;12190802;19;20251;-82
2023/12/02 22:44:46;;;;;;;16.85;6.93;;;;;;;-0.80;83.77;100175.72;12172607;19;20014;-82
2023/12/02 22:48:51;;;;;;;12.82;6.40;;;;;;;-0.84;83.50;100185.16;12195925;19;20039;-82
2023/12/02 22:52:53;;;;;;;15.65;6.93;;;;;;;-0.87;83.48;100190.06;12192802;19;20024;-82
2023/12/02 22:57:17;;;;;;;17.30;7.90;;;;;;;-0.88;83.53;100186.53;12170342;19;20019;-83
2023/12/02 23:01:34;;;;;;;14.18;6.20;;;;;;;-0.90;83.57;100195.81;12190248;19;20041;-82
2023/12/02 23:05:37;;;;;;;14.00;6.28;;;;;;;-0.93;83.34;100200.53;12181495;19;20010;-82
2023/12/02 23:09:50;;;;;;;15.07;6.90;;;;;;;-0.97;83.78;100201.88;12197321;19;20003;-83
2023/12/02 23:13:52;;;;;;;12.90;6.32;;;;;;;-0.99;83.65;100201.19;12199668;19;20047;-83
2023/12/02 23:17:55;;;;;;;14.43;6.75;;;;;;;-1.01;83.83;100207.78;12178057;19;20010;-82
2023/12/02 23:21:57;;;;;;;15.55;7.15;;;;;;;-1.05;83.53;100215.38;12198497;19;20014;-83
2023/12/02 23:25:59;;;;;;;14.02;5.65;;;;;;;-1.04;84.37;100222.50;12171082;19;20002;-83
2023/12/02 23:30:02;;;;;;;13.73;6.57;;;;;;;-1.01;84.04;100216.78;12208577;19;20312;-83
2023/12/02 23:34:05;;;;;;;10.75;6.18;;;;;;;-1.02;84.21;100217.75;12205740;19;20064;-83
2023/12/02 23:38:07;;;;;;;13.18;6.15;;;;;;;-1.11;84.06;100217.91;12165722;19;20010;-83
2023/12/02 23:42:31;;;;;;;13.73;5.35;;;;;;;-1.21;84.48;100215.34;12202516;19;20473;-82
2023/12/02 23:46:33;;;;;;;10.30;6.20;;;;;;;-1.40;85.05;100217.31;12204349;19;20031;-83
2023/12/02 23:50:35;;;;;;;15.80;6.27;;;;;;;-1.55;85.76;100218.91;12181036;19;20006;-83
2023/12/02 23:54:36;;;;;;;13.00;5.63;;;;;;;-1.72;86.38;100211.75;12200209;19;20015;-81
2023/12/02 23:58:38;;;;;;;15.43;7.90;;;;;;;-1.87;87.34;100220.44;12195004;19;20556;-83
